Terminal Aerodrome Forecast
Issued by NWS

Home | Current Version | Previous Version | Text Only | Print | Product List | Glossary On
Versions: 1 2 3 4 5 6 7 8 9 10 11 12 13
000
FTUS42 KFFC 272343
TAFRYY
TAF
KRYY 272343Z 2800/2824 09007KT P6SM SKC
     FM280600 08004KT P6SM SCT025
     FM280900 08004KT P6SM BKN012
     FM281400 08008KT P6SM BKN020
     FM281700 10010KT P6SM BKN035
      AMD NOT SKED 2804/2812=

USA.gov is the U.S. government's official web portal to all federal, state and local government web resources and services.